sensor_id;sensor_type;location;lat;lon;timestamp;temperature;humidity
20929;DHT22;21895;47.072;15.132;2024-02-16T00:01:42;1.60;99.90
20929;DHT22;21895;47.072;15.132;2024-02-16T00:04:08;1.50;99.90
20929;DHT22;21895;47.072;15.132;2024-02-16T00:06:35;1.40;99.90
20929;DHT22;21895;47.072;15.132;2024-02-16T00:09:02;1.40;99.90
20929;DHT22;21895;47.072;15.132;2024-02-16T00:11:29;1.50;99.90
20929;DHT22;21895;47.072;15.132;2024-02-16T00:13:56;1.50;99.90
20929;DHT22;21895;47.072;15.132;2024-02-16T00:16:22;1.50;99.90
20929;DHT22;21895;47.072;15.132;2024-02-16T00:18:49;1.50;99.90
20929;DHT22;21895;47.072;15.132;2024-02-16T00:21:16;1.50;99.90
20929;DHT22;21895;47.072;15.132;2024-02-16T00:23:43;1.60;99.90
20929;DHT22;21895;47.072;15.132;2024-02-16T00:26:10;1.70;99.90
20929;DHT22;21895;47.072;15.132;2024-02-16T00:28:37;1.60;99.90
20929;DHT22;21895;47.072;15.132;2024-02-16T00:31:04;1.50;99.90
20929;DHT22;21895;47.072;15.132;2024-02-16T00:33:31;1.50;99.90
20929;DHT22;21895;47.072;15.132;2024-02-16T00:35:58;1.50;99.90
20929;DHT22;21895;47.072;15.132;2024-02-16T00:38:25;1.60;99.90
20929;DHT22;21895;47.072;15.132;2024-02-16T00:40:51;1.40;99.90
20929;DHT22;21895;47.072;15.132;2024-02-16T00:43:18;1.20;99.90
20929;DHT22;21895;47.072;15.132;2024-02-16T00:45:44;1.20;99.90
20929;DHT22;21895;47.072;15.132;2024-02-16T00:48:12;1.30;99.90
20929;DHT22;21895;47.072;15.132;2024-02-16T00:50:39;1.40;99.90
20929;DHT22;21895;47.072;15.132;2024-02-16T00:53:06;1.40;99.90
20929;DHT22;21895;47.072;15.132;2024-02-16T00:55:32;1.40;99.90
20929;DHT22;21895;47.072;15.132;2024-02-16T00:57:59;1.20;99.90
20929;DHT22;21895;47.072;15.132;2024-02-16T01:00:25;1.20;99.90
20929;DHT22;21895;47.072;15.132;2024-02-16T01:02:52;1.20;99.90
20929;DHT22;21895;47.072;15.132;2024-02-16T01:05:18;1.20;99.90
20929;DHT22;21895;47.072;15.132;2024-02-16T01:07:45;1.20;99.90
20929;DHT22;21895;47.072;15.132;2024-02-16T01:10:12;1.10;99.90
20929;DHT22;21895;47.072;15.132;2024-02-16T01:12:39;1.20;99.90
20929;DHT22;21895;47.072;15.132;2024-02-16T01:15:06;1.20;99.90
20929;DHT22;21895;47.072;15.132;2024-02-16T01:17:33;1.00;99.90
20929;DHT22;21895;47.072;15.132;2024-02-16T01:20:00;0.90;99.90
20929;DHT22;21895;47.072;15.132;2024-02-16T01:22:27;0.70;99.90
20929;DHT22;21895;47.072;15.132;2024-02-16T01:24:56;0.80;99.90
20929;DHT22;21895;47.072;15.132;2024-02-16T01:27:22;0.80;99.90
20929;DHT22;21895;47.072;15.132;2024-02-16T01:29:49;0.70;99.90
20929;DHT22;21895;47.072;15.132;2024-02-16T01:32:16;0.70;99.90
20929;DHT22;21895;47.072;15.132;2024-02-16T01:34:42;0.70;99.90
20929;DHT22;21895;47.072;15.132;2024-02-16T01:37:12;0.80;99.90
20929;DHT22;21895;47.072;15.132;2024-02-16T01:39:39;0.90;99.90
20929;DHT22;21895;47.072;15.132;2024-02-16T01:42:06;0.80;99.90
20929;DHT22;21895;47.072;15.132;2024-02-16T01:44:33;0.70;99.90
20929;DHT22;21895;47.072;15.132;2024-02-16T01:47:00;0.60;99.90
20929;DHT22;21895;47.072;15.132;2024-02-16T01:49:27;0.60;99.90
20929;DHT22;21895;47.072;15.132;2024-02-16T01:51:54;0.70;99.90
20929;DHT22;21895;47.072;15.132;2024-02-16T01:54:21;0.70;99.90
20929;DHT22;21895;47.072;15.132;2024-02-16T01:56:49;0.80;99.90
20929;DHT22;21895;47.072;15.132;2024-02-16T01:59:19;0.70;99.90
20929;DHT22;21895;47.072;15.132;2024-02-16T02:01:46;0.60;99.90
20929;DHT22;21895;47.072;15.132;2024-02-16T02:04:12;0.50;99.90
20929;DHT22;21895;47.072;15.132;2024-02-16T02:06:39;0.70;99.90
20929;DHT22;21895;47.072;15.132;2024-02-16T02:09:06;0.70;99.90
20929;DHT22;21895;47.072;15.132;2024-02-16T02:11:34;0.60;99.90
20929;DHT22;21895;47.072;15.132;2024-02-16T02:14:01;0.50;99.90
20929;DHT22;21895;47.072;15.132;2024-02-16T02:16:27;0.60;99.90
20929;DHT22;21895;47.072;15.132;2024-02-16T02:18:54;0.60;99.90
20929;DHT22;21895;47.072;15.132;2024-02-16T02:21:21;0.70;99.90
20929;DHT22;21895;47.072;15.132;2024-02-16T02:23:47;0.80;99.90
20929;DHT22;21895;47.072;15.132;2024-02-16T02:26:14;0.80;99.90
20929;DHT22;21895;47.072;15.132;2024-02-16T02:28:42;0.70;99.90
20929;DHT22;21895;47.072;15.132;2024-02-16T02:31:09;0.70;99.90
20929;DHT22;21895;47.072;15.132;2024-02-16T02:33:36;0.70;99.90
20929;DHT22;21895;47.072;15.132;2024-02-16T02:36:03;0.70;99.90
20929;DHT22;21895;47.072;15.132;2024-02-16T02:38:31;0.80;99.90
20929;DHT22;21895;47.072;15.132;2024-02-16T02:40:57;0.60;99.90
20929;DHT22;21895;47.072;15.132;2024-02-16T02:43:24;0.50;99.90
20929;DHT22;21895;47.072;15.132;2024-02-16T02:45:50;0.50;99.90
20929;DHT22;21895;47.072;15.132;2024-02-16T02:48:17;0.50;99.90
20929;DHT22;21895;47.072;15.132;2024-02-16T02:50:44;0.60;99.90
20929;DHT22;21895;47.072;15.132;2024-02-16T02:53:10;0.40;99.90
20929;DHT22;21895;47.072;15.132;2024-02-16T02:55:37;0.40;99.90
20929;DHT22;21895;47.072;15.132;2024-02-16T02:58:04;0.30;99.90
20929;DHT22;21895;47.072;15.132;2024-02-16T03:00:30;0.30;99.90
20929;DHT22;21895;47.072;15.132;2024-02-16T03:02:57;0.40;99.90
20929;DHT22;21895;47.072;15.132;2024-02-16T03:05:24;0.40;99.90
20929;DHT22;21895;47.072;15.132;2024-02-16T03:07:50;0.30;99.90
20929;DHT22;21895;47.072;15.132;2024-02-16T03:10:17;0.30;99.90
20929;DHT22;21895;47.072;15.132;2024-02-16T03:12:48;0.40;99.90
20929;DHT22;21895;47.072;15.132;2024-02-16T03:15:17;0.40;99.90
20929;DHT22;21895;47.072;15.132;2024-02-16T03:17:44;0.40;99.90
20929;DHT22;21895;47.072;15.132;2024-02-16T03:20:11;0.40;99.90
20929;DHT22;21895;47.072;15.132;2024-02-16T03:22:37;0.30;99.90
20929;DHT22;21895;47.072;15.132;2024-02-16T03:25:04;0.30;99.90
20929;DHT22;21895;47.072;15.132;2024-02-16T03:27:31;0.40;99.90
20929;DHT22;21895;47.072;15.132;2024-02-16T03:29:58;0.40;99.90
20929;DHT22;21895;47.072;15.132;2024-02-16T03:32:25;0.50;99.90
20929;DHT22;21895;47.072;15.132;2024-02-16T03:34:52;0.60;99.90
20929;DHT22;21895;47.072;15.132;2024-02-16T03:37:19;0.70;99.90
20929;DHT22;21895;47.072;15.132;2024-02-16T03:39:45;0.50;99.90
20929;DHT22;21895;47.072;15.132;2024-02-16T03:42:12;0.40;99.90
20929;DHT22;21895;47.072;15.132;2024-02-16T03:44:38;0.30;99.90
20929;DHT22;21895;47.072;15.132;2024-02-16T03:47:05;0.20;99.90
20929;DHT22;21895;47.072;15.132;2024-02-16T03:49:32;0.00;99.90
20929;DHT22;21895;47.072;15.132;2024-02-16T03:52:00;0.00;99.90
20929;DHT22;21895;47.072;15.132;2024-02-16T03:54:27;-0.10;99.90
20929;DHT22;21895;47.072;15.132;2024-02-16T03:56:54;-0.10;99.90
20929;DHT22;21895;47.072;15.132;2024-02-16T03:59:21;0.10;99.90
20929;DHT22;21895;47.072;15.132;2024-02-16T04:01:47;0.10;99.90
20929;DHT22;21895;47.072;15.132;2024-02-16T04:04:14;0.20;99.90
20929;DHT22;21895;47.072;15.132;2024-02-16T04:06:41;0.20;99.90
20929;DHT22;21895;47.072;15.132;2024-02-16T04:09:07;0.10;99.90
20929;DHT22;21895;47.072;15.132;2024-02-16T04:11:34;0.00;99.90
20929;DHT22;21895;47.072;15.132;2024-02-16T04:14:01;0.00;99.90
20929;DHT22;21895;47.072;15.132;2024-02-16T04:16:28;0.00;99.90
20929;DHT22;21895;47.072;15.132;2024-02-16T04:18:55;0.00;99.90
20929;DHT22;21895;47.072;15.132;2024-02-16T04:21:22;0.00;99.90
20929;DHT22;21895;47.072;15.132;2024-02-16T04:23:48;0.00;99.90
20929;DHT22;21895;47.072;15.132;2024-02-16T04:26:15;0.00;99.90
20929;DHT22;21895;47.072;15.132;2024-02-16T04:28:42;0.10;99.90
20929;DHT22;21895;47.072;15.132;2024-02-16T04:31:08;-0.10;99.90
20929;DHT22;21895;47.072;15.132;2024-02-16T04:33:36;-0.30;99.90
20929;DHT22;21895;47.072;15.132;2024-02-16T04:36:06;-0.30;99.90
20929;DHT22;21895;47.072;15.132;2024-02-16T04:38:34;-0.20;99.90
20929;DHT22;21895;47.072;15.132;2024-02-16T04:41:00;-0.10;99.90
20929;DHT22;21895;47.072;15.132;2024-02-16T04:43:27;0.10;99.90
20929;DHT22;21895;47.072;15.132;2024-02-16T04:45:53;0.10;99.90
20929;DHT22;21895;47.072;15.132;2024-02-16T04:48:20;0.20;99.90
20929;DHT22;21895;47.072;15.132;2024-02-16T04:50:47;0.00;99.90
20929;DHT22;21895;47.072;15.132;2024-02-16T04:53:13;-0.20;99.90
20929;DHT22;21895;47.072;15.132;2024-02-16T04:55:40;-0.20;99.90
20929;DHT22;21895;47.072;15.132;2024-02-16T04:58:07;-0.10;99.90
20929;DHT22;21895;47.072;15.132;2024-02-16T05:00:38;0.00;99.90
20929;DHT22;21895;47.072;15.132;2024-02-16T05:03:05;0.00;99.90
20929;DHT22;21895;47.072;15.132;2024-02-16T05:05:32;0.00;99.90
20929;DHT22;21895;47.072;15.132;2024-02-16T05:08:00;0.00;99.90
20929;DHT22;21895;47.072;15.132;2024-02-16T05:10:27;-0.20;99.90
20929;DHT22;21895;47.072;15.132;2024-02-16T05:12:54;-0.20;99.90
20929;DHT22;21895;47.072;15.132;2024-02-16T05:15:21;-0.40;99.90
20929;DHT22;21895;47.072;15.132;2024-02-16T05:17:48;-0.60;99.90
20929;DHT22;21895;47.072;15.132;2024-02-16T05:20:15;-0.50;99.90
20929;DHT22;21895;47.072;15.132;2024-02-16T05:22:44;-0.20;99.90
20929;DHT22;21895;47.072;15.132;2024-02-16T05:25:16;-0.10;99.90
20929;DHT22;21895;47.072;15.132;2024-02-16T05:27:46;-0.10;99.90
20929;DHT22;21895;47.072;15.132;2024-02-16T05:30:16;-0.20;99.90
20929;DHT22;21895;47.072;15.132;2024-02-16T05:32:43;-0.30;99.90
20929;DHT22;21895;47.072;15.132;2024-02-16T05:35:11;-0.50;99.90
20929;DHT22;21895;47.072;15.132;2024-02-16T05:37:42;-0.60;99.90
20929;DHT22;21895;47.072;15.132;2024-02-16T05:40:15;-0.50;99.90
20929;DHT22;21895;47.072;15.132;2024-02-16T05:42:48;-0.50;99.90
20929;DHT22;21895;47.072;15.132;2024-02-16T05:45:18;-0.40;99.90
20929;DHT22;21895;47.072;15.132;2024-02-16T05:47:45;-0.40;99.90
20929;DHT22;21895;47.072;15.132;2024-02-16T05:50:13;-0.40;99.90
20929;DHT22;21895;47.072;15.132;2024-02-16T05:52:41;-0.30;99.90
20929;DHT22;21895;47.072;15.132;2024-02-16T05:55:09;-0.30;99.90
20929;DHT22;21895;47.072;15.132;2024-02-16T05:57:37;-0.10;99.90
20929;DHT22;21895;47.072;15.132;2024-02-16T06:00:05;-0.20;99.90
20929;DHT22;21895;47.072;15.132;2024-02-16T06:02:33;-0.20;99.90
20929;DHT22;21895;47.072;15.132;2024-02-16T06:05:01;-0.20;99.90
20929;DHT22;21895;47.072;15.132;2024-02-16T06:07:29;-0.20;99.90
20929;DHT22;21895;47.072;15.132;2024-02-16T06:09:56;-0.20;99.90
20929;DHT22;21895;47.072;15.132;2024-02-16T06:12:23;-0.30;99.90
20929;DHT22;21895;47.072;15.132;2024-02-16T06:14:50;-0.10;99.90
20929;DHT22;21895;47.072;15.132;2024-02-16T06:17:19;-0.10;99.90
20929;DHT22;21895;47.072;15.132;2024-02-16T06:19:46;-0.20;99.90
20929;DHT22;21895;47.072;15.132;2024-02-16T06:22:13;-0.40;99.90
20929;DHT22;21895;47.072;15.132;2024-02-16T06:24:39;-0.40;99.90
20929;DHT22;21895;47.072;15.132;2024-02-16T06:27:06;-0.30;99.90
20929;DHT22;21895;47.072;15.132;2024-02-16T06:29:34;-0.20;99.90
20929;DHT22;21895;47.072;15.132;2024-02-16T06:32:01;-0.10;99.90
20929;DHT22;21895;47.072;15.132;2024-02-16T06:34:31;0.10;99.90
20929;DHT22;21895;47.072;15.132;2024-02-16T06:36:58;0.20;99.90
20929;DHT22;21895;47.072;15.132;2024-02-16T06:39:24;0.30;99.90
20929;DHT22;21895;47.072;15.132;2024-02-16T06:41:51;0.40;99.90
20929;DHT22;21895;47.072;15.132;2024-02-16T06:44:18;0.30;99.90
20929;DHT22;21895;47.072;15.132;2024-02-16T06:46:49;0.30;99.90
20929;DHT22;21895;47.072;15.132;2024-02-16T06:49:15;0.30;99.90
20929;DHT22;21895;47.072;15.132;2024-02-16T06:51:42;0.30;99.90
20929;DHT22;21895;47.072;15.132;2024-02-16T06:54:11;0.40;99.90
20929;DHT22;21895;47.072;15.132;2024-02-16T06:56:38;0.30;99.90
20929;DHT22;21895;47.072;15.132;2024-02-16T06:59:04;0.50;99.90
20929;DHT22;21895;47.072;15.132;2024-02-16T07:01:31;0.70;99.90
20929;DHT22;21895;47.072;15.132;2024-02-16T07:03:58;0.80;99.90
20929;DHT22;21895;47.072;15.132;2024-02-16T07:06:24;0.80;99.90
20929;DHT22;21895;47.072;15.132;2024-02-16T07:08:52;0.70;99.90
20929;DHT22;21895;47.072;15.132;2024-02-16T07:11:18;0.70;99.90
20929;DHT22;21895;47.072;15.132;2024-02-16T07:13:46;0.70;99.90
20929;DHT22;21895;47.072;15.132;2024-02-16T07:16:13;0.70;99.90
20929;DHT22;21895;47.072;15.132;2024-02-16T07:18:40;0.70;99.90
20929;DHT22;21895;47.072;15.132;2024-02-16T07:21:08;0.80;99.90
20929;DHT22;21895;47.072;15.132;2024-02-16T07:23:35;0.80;99.90
20929;DHT22;21895;47.072;15.132;2024-02-16T07:26:02;0.80;99.90
20929;DHT22;21895;47.072;15.132;2024-02-16T07:28:33;0.90;99.90
20929;DHT22;21895;47.072;15.132;2024-02-16T07:30:59;1.10;99.90
20929;DHT22;21895;47.072;15.132;2024-02-16T07:33:26;1.30;99.90
20929;DHT22;21895;47.072;15.132;2024-02-16T07:35:54;1.40;99.90
20929;DHT22;21895;47.072;15.132;2024-02-16T07:38:21;1.60;99.90
20929;DHT22;21895;47.072;15.132;2024-02-16T07:40:48;1.80;99.90
20929;DHT22;21895;47.072;15.132;2024-02-16T07:43:16;1.90;99.90
20929;DHT22;21895;47.072;15.132;2024-02-16T07:45:44;2.10;99.90
20929;DHT22;21895;47.072;15.132;2024-02-16T07:48:11;2.30;99.90
20929;DHT22;21895;47.072;15.132;2024-02-16T07:50:37;2.50;99.90
20929;DHT22;21895;47.072;15.132;2024-02-16T07:53:04;2.70;99.90
20929;DHT22;21895;47.072;15.132;2024-02-16T07:55:31;2.90;99.90
20929;DHT22;21895;47.072;15.132;2024-02-16T07:57:57;3.10;99.90
20929;DHT22;21895;47.072;15.132;2024-02-16T08:00:25;3.30;99.90
20929;DHT22;21895;47.072;15.132;2024-02-16T08:02:51;3.30;99.90
20929;DHT22;21895;47.072;15.132;2024-02-16T08:05:18;3.50;99.90
20929;DHT22;21895;47.072;15.132;2024-02-16T08:07:46;3.60;99.90
20929;DHT22;21895;47.072;15.132;2024-02-16T08:10:13;3.70;99.90
20929;DHT22;21895;47.072;15.132;2024-02-16T08:12:40;3.90;99.90
20929;DHT22;21895;47.072;15.132;2024-02-16T08:15:07;4.00;99.90
20929;DHT22;21895;47.072;15.132;2024-02-16T08:17:35;4.20;99.90
20929;DHT22;21895;47.072;15.132;2024-02-16T08:20:03;4.40;99.90
20929;DHT22;21895;47.072;15.132;2024-02-16T08:22:30;4.60;99.90
20929;DHT22;21895;47.072;15.132;2024-02-16T08:24:58;4.80;99.90
20929;DHT22;21895;47.072;15.132;2024-02-16T08:27:25;5.00;99.90
20929;DHT22;21895;47.072;15.132;2024-02-16T08:29:51;5.10;99.90
20929;DHT22;21895;47.072;15.132;2024-02-16T08:32:18;5.30;99.90
20929;DHT22;21895;47.072;15.132;2024-02-16T08:34:46;5.40;99.90
20929;DHT22;21895;47.072;15.132;2024-02-16T08:37:16;5.60;99.90
20929;DHT22;21895;47.072;15.132;2024-02-16T08:39:43;5.80;99.90
20929;DHT22;21895;47.072;15.132;2024-02-16T08:42:10;5.90;99.90
20929;DHT22;21895;47.072;15.132;2024-02-16T08:44:40;6.00;99.90
20929;DHT22;21895;47.072;15.132;2024-02-16T08:47:08;6.20;99.90
20929;DHT22;21895;47.072;15.132;2024-02-16T08:49:35;6.40;99.90
20929;DHT22;21895;47.072;15.132;2024-02-16T08:52:02;6.50;99.90
20929;DHT22;21895;47.072;15.132;2024-02-16T08:54:28;6.80;99.90
20929;DHT22;21895;47.072;15.132;2024-02-16T08:56:55;6.90;99.90
20929;DHT22;21895;47.072;15.132;2024-02-16T08:59:22;7.00;99.90
20929;DHT22;21895;47.072;15.132;2024-02-16T09:01:48;7.20;99.90
20929;DHT22;21895;47.072;15.132;2024-02-16T09:04:15;7.30;99.90
20929;DHT22;21895;47.072;15.132;2024-02-16T09:06:42;7.40;99.90
20929;DHT22;21895;47.072;15.132;2024-02-16T09:09:09;7.60;99.90
20929;DHT22;21895;47.072;15.132;2024-02-16T09:11:36;7.70;99.90
20929;DHT22;21895;47.072;15.132;2024-02-16T09:14:03;7.90;99.90
20929;DHT22;21895;47.072;15.132;2024-02-16T09:16:30;8.00;99.90
20929;DHT22;21895;47.072;15.132;2024-02-16T09:18:58;8.10;99.90
20929;DHT22;21895;47.072;15.132;2024-02-16T09:21:25;8.30;99.90
20929;DHT22;21895;47.072;15.132;2024-02-16T09:23:54;8.50;99.90
20929;DHT22;21895;47.072;15.132;2024-02-16T09:26:24;8.60;99.90
20929;DHT22;21895;47.072;15.132;2024-02-16T09:28:56;8.70;99.90
20929;DHT22;21895;47.072;15.132;2024-02-16T09:31:24;8.90;99.90
20929;DHT22;21895;47.072;15.132;2024-02-16T09:33:51;9.10;99.90
20929;DHT22;21895;47.072;15.132;2024-02-16T09:36:18;9.30;99.90
20929;DHT22;21895;47.072;15.132;2024-02-16T09:38:44;9.40;99.90
20929;DHT22;21895;47.072;15.132;2024-02-16T09:41:11;9.60;99.90
20929;DHT22;21895;47.072;15.132;2024-02-16T09:43:39;9.60;99.90
20929;DHT22;21895;47.072;15.132;2024-02-16T09:46:06;9.70;99.90
20929;DHT22;21895;47.072;15.132;2024-02-16T09:48:35;9.70;99.90
20929;DHT22;21895;47.072;15.132;2024-02-16T09:51:02;9.80;99.90
20929;DHT22;21895;47.072;15.132;2024-02-16T09:53:29;9.90;99.90
20929;DHT22;21895;47.072;15.132;2024-02-16T09:55:56;10.10;99.90
20929;DHT22;21895;47.072;15.132;2024-02-16T09:58:23;10.20;99.90
20929;DHT22;21895;47.072;15.132;2024-02-16T10:00:54;10.20;99.90
20929;DHT22;21895;47.072;15.132;2024-02-16T10:03:30;10.30;99.90
20929;DHT22;21895;47.072;15.132;2024-02-16T10:06:10;10.40;99.90
20929;DHT22;21895;47.072;15.132;2024-02-16T10:08:54;10.60;99.90
20929;DHT22;21895;47.072;15.132;2024-02-16T10:11:24;10.60;99.90
20929;DHT22;21895;47.072;15.132;2024-02-16T10:14:00;10.80;99.90
20929;DHT22;21895;47.072;15.132;2024-02-16T10:16:29;10.90;99.90
20929;DHT22;21895;47.072;15.132;2024-02-16T10:18:57;11.00;99.90
20929;DHT22;21895;47.072;15.132;2024-02-16T10:21:33;11.00;99.90
20929;DHT22;21895;47.072;15.132;2024-02-16T10:24:07;11.20;99.90
20929;DHT22;21895;47.072;15.132;2024-02-16T10:26:35;11.30;99.90
20929;DHT22;21895;47.072;15.132;2024-02-16T10:29:14;11.30;99.90
20929;DHT22;21895;47.072;15.132;2024-02-16T10:31:45;11.40;99.90
20929;DHT22;21895;47.072;15.132;2024-02-16T10:34:12;11.50;99.90
20929;DHT22;21895;47.072;15.132;2024-02-16T10:36:40;11.40;99.90
20929;DHT22;21895;47.072;15.132;2024-02-16T10:39:08;11.40;99.90
20929;DHT22;21895;47.072;15.132;2024-02-16T10:41:38;11.50;99.90
20929;DHT22;21895;47.072;15.132;2024-02-16T10:44:07;11.60;99.90
20929;DHT22;21895;47.072;15.132;2024-02-16T10:46:34;11.70;99.70
20929;DHT22;21895;47.072;15.132;2024-02-16T10:49:01;11.80;99.30
20929;DHT22;21895;47.072;15.132;2024-02-16T10:51:41;12.00;99.10
20929;DHT22;21895;47.072;15.132;2024-02-16T10:54:17;12.00;99.20
20929;DHT22;21895;47.072;15.132;2024-02-16T10:56:45;12.10;99.40
20929;DHT22;21895;47.072;15.132;2024-02-16T10:59:13;12.10;98.70
20929;DHT22;21895;47.072;15.132;2024-02-16T11:01:41;12.30;98.70
20929;DHT22;21895;47.072;15.132;2024-02-16T11:04:16;12.30;98.70
20929;DHT22;21895;47.072;15.132;2024-02-16T11:06:56;12.30;98.60
20929;DHT22;21895;47.072;15.132;2024-02-16T11:09:29;12.30;98.80
20929;DHT22;21895;47.072;15.132;2024-02-16T11:12:02;12.40;98.60
20929;DHT22;21895;47.072;15.132;2024-02-16T11:14:46;12.60;98.10
20929;DHT22;21895;47.072;15.132;2024-02-16T11:17:21;12.60;98.00
20929;DHT22;21895;47.072;15.132;2024-02-16T11:19:49;12.60;98.30
20929;DHT22;21895;47.072;15.132;2024-02-16T11:22:20;12.60;98.20
20929;DHT22;21895;47.072;15.132;2024-02-16T11:24:49;12.60;97.90
20929;DHT22;21895;47.072;15.132;2024-02-16T11:27:21;12.60;97.90
20929;DHT22;21895;47.072;15.132;2024-02-16T11:29:49;12.60;97.90
20929;DHT22;21895;47.072;15.132;2024-02-16T11:32:18;12.60;97.90
20929;DHT22;21895;47.072;15.132;2024-02-16T11:34:45;12.70;97.80
20929;DHT22;21895;47.072;15.132;2024-02-16T11:37:13;12.80;98.00
20929;DHT22;21895;47.072;15.132;2024-02-16T11:39:42;12.80;97.70
20929;DHT22;21895;47.072;15.132;2024-02-16T11:42:12;12.90;97.40
20929;DHT22;21895;47.072;15.132;2024-02-16T11:44:49;12.90;97.20
20929;DHT22;21895;47.072;15.132;2024-02-16T11:47:20;12.90;97.50
20929;DHT22;21895;47.072;15.132;2024-02-16T11:50:09;13.10;97.20
20929;DHT22;21895;47.072;15.132;2024-02-16T11:52:39;13.00;97.40
20929;DHT22;21895;47.072;15.132;2024-02-16T11:55:10;13.00;97.60
20929;DHT22;21895;47.072;15.132;2024-02-16T11:57:38;12.90;97.70
20929;DHT22;21895;47.072;15.132;2024-02-16T12:00:07;13.00;97.30
20929;DHT22;21895;47.072;15.132;2024-02-16T12:02:36;13.10;97.00
20929;DHT22;21895;47.072;15.132;2024-02-16T12:05:04;13.00;97.40
20929;DHT22;21895;47.072;15.132;2024-02-16T12:07:31;13.10;97.40
20929;DHT22;21895;47.072;15.132;2024-02-16T12:10:02;13.00;97.00
20929;DHT22;21895;47.072;15.132;2024-02-16T12:12:33;13.10;97.40
20929;DHT22;21895;47.072;15.132;2024-02-16T12:15:01;13.10;96.90
20929;DHT22;21895;47.072;15.132;2024-02-16T12:17:28;13.10;96.70
20929;DHT22;21895;47.072;15.132;2024-02-16T12:19:54;13.00;96.70
20929;DHT22;21895;47.072;15.132;2024-02-16T12:22:21;13.00;97.00
20929;DHT22;21895;47.072;15.132;2024-02-16T12:24:49;13.00;96.80
20929;DHT22;21895;47.072;15.132;2024-02-16T12:27:16;13.00;96.70
20929;DHT22;21895;47.072;15.132;2024-02-16T12:29:43;13.10;96.70
20929;DHT22;21895;47.072;15.132;2024-02-16T12:32:10;13.20;96.50
20929;DHT22;21895;47.072;15.132;2024-02-16T12:34:37;13.10;96.30
20929;DHT22;21895;47.072;15.132;2024-02-16T12:37:08;13.10;96.40
20929;DHT22;21895;47.072;15.132;2024-02-16T12:39:36;13.10;96.50
20929;DHT22;21895;47.072;15.132;2024-02-16T12:42:03;13.20;96.30
20929;DHT22;21895;47.072;15.132;2024-02-16T12:44:30;13.30;96.00
20929;DHT22;21895;47.072;15.132;2024-02-16T12:46:56;13.20;95.90
20929;DHT22;21895;47.072;15.132;2024-02-16T12:49:23;13.10;96.50
20929;DHT22;21895;47.072;15.132;2024-02-16T12:51:50;13.10;96.50
20929;DHT22;21895;47.072;15.132;2024-02-16T12:54:18;13.20;95.40
20929;DHT22;21895;47.072;15.132;2024-02-16T12:56:49;13.20;95.60
20929;DHT22;21895;47.072;15.132;2024-02-16T12:59:15;13.30;95.50
20929;DHT22;21895;47.072;15.132;2024-02-16T13:01:42;13.40;95.10
20929;DHT22;21895;47.072;15.132;2024-02-16T13:04:10;13.40;94.80
20929;DHT22;21895;47.072;15.132;2024-02-16T13:06:36;13.40;95.20
20929;DHT22;21895;47.072;15.132;2024-02-16T13:09:03;13.50;94.50
20929;DHT22;21895;47.072;15.132;2024-02-16T13:11:31;13.50;94.20
20929;DHT22;21895;47.072;15.132;2024-02-16T13:13:59;13.40;94.30
20929;DHT22;21895;47.072;15.132;2024-02-16T13:16:26;13.50;94.60
20929;DHT22;21895;47.072;15.132;2024-02-16T13:18:53;13.50;94.60
20929;DHT22;21895;47.072;15.132;2024-02-16T13:21:19;13.40;95.20
20929;DHT22;21895;47.072;15.132;2024-02-16T13:23:46;13.50;94.60
20929;DHT22;21895;47.072;15.132;2024-02-16T13:26:13;13.50;94.70
20929;DHT22;21895;47.072;15.132;2024-02-16T13:28:39;13.40;95.00
20929;DHT22;21895;47.072;15.132;2024-02-16T13:31:06;13.50;94.80
20929;DHT22;21895;47.072;15.132;2024-02-16T13:33:33;13.50;95.40
20929;DHT22;21895;47.072;15.132;2024-02-16T13:35:59;13.50;95.20
20929;DHT22;21895;47.072;15.132;2024-02-16T13:38:26;13.50;95.20
20929;DHT22;21895;47.072;15.132;2024-02-16T13:40:53;13.40;95.30
20929;DHT22;21895;47.072;15.132;2024-02-16T13:43:19;13.30;95.20
20929;DHT22;21895;47.072;15.132;2024-02-16T13:45:55;13.30;95.50
20929;DHT22;21895;47.072;15.132;2024-02-16T13:48:24;13.30;95.40
20929;DHT22;21895;47.072;15.132;2024-02-16T13:50:53;13.30;95.30
20929;DHT22;21895;47.072;15.132;2024-02-16T13:53:21;13.40;95.10
20929;DHT22;21895;47.072;15.132;2024-02-16T13:55:51;13.40;94.90
20929;DHT22;21895;47.072;15.132;2024-02-16T13:58:17;13.40;95.10
20929;DHT22;21895;47.072;15.132;2024-02-16T14:00:44;13.30;95.00
20929;DHT22;21895;47.072;15.132;2024-02-16T14:03:14;13.20;95.20
20929;DHT22;21895;47.072;15.132;2024-02-16T14:05:42;13.20;95.40
20929;DHT22;21895;47.072;15.132;2024-02-16T14:08:12;13.20;95.20
20929;DHT22;21895;47.072;15.132;2024-02-16T14:10:38;13.20;95.60
20929;DHT22;21895;47.072;15.132;2024-02-16T14:13:05;13.30;95.60
20929;DHT22;21895;47.072;15.132;2024-02-16T14:15:32;13.20;95.20
20929;DHT22;21895;47.072;15.132;2024-02-16T14:17:59;13.20;95.10
20929;DHT22;21895;47.072;15.132;2024-02-16T14:20:37;13.20;95.10
20929;DHT22;21895;47.072;15.132;2024-02-16T14:23:04;13.20;95.10
20929;DHT22;21895;47.072;15.132;2024-02-16T14:25:33;13.10;95.60
20929;DHT22;21895;47.072;15.132;2024-02-16T14:28:01;13.10;95.10
20929;DHT22;21895;47.072;15.132;2024-02-16T14:30:27;13.00;95.40
20929;DHT22;21895;47.072;15.132;2024-02-16T14:32:54;13.00;95.50
20929;DHT22;21895;47.072;15.132;2024-02-16T14:35:21;13.00;95.40
20929;DHT22;21895;47.072;15.132;2024-02-16T14:37:49;13.00;95.20
20929;DHT22;21895;47.072;15.132;2024-02-16T14:40:16;13.00;95.30
20929;DHT22;21895;47.072;15.132;2024-02-16T14:42:42;13.00;95.10
20929;DHT22;21895;47.072;15.132;2024-02-16T14:45:09;12.90;95.20
20929;DHT22;21895;47.072;15.132;2024-02-16T14:47:45;12.90;95.40
20929;DHT22;21895;47.072;15.132;2024-02-16T14:50:13;12.80;95.40
20929;DHT22;21895;47.072;15.132;2024-02-16T14:52:41;12.80;95.40
20929;DHT22;21895;47.072;15.132;2024-02-16T14:55:08;12.90;95.20
20929;DHT22;21895;47.072;15.132;2024-02-16T14:57:43;12.80;95.40
20929;DHT22;21895;47.072;15.132;2024-02-16T15:00:13;12.70;95.10
20929;DHT22;21895;47.072;15.132;2024-02-16T15:02:40;12.70;95.30
20929;DHT22;21895;47.072;15.132;2024-02-16T15:05:08;12.60;95.50
20929;DHT22;21895;47.072;15.132;2024-02-16T15:07:35;12.70;95.20
20929;DHT22;21895;47.072;15.132;2024-02-16T15:10:02;12.70;95.20
20929;DHT22;21895;47.072;15.132;2024-02-16T15:12:29;12.70;95.60
20929;DHT22;21895;47.072;15.132;2024-02-16T15:14:56;12.60;95.40
20929;DHT22;21895;47.072;15.132;2024-02-16T15:17:23;12.60;95.80
20929;DHT22;21895;47.072;15.132;2024-02-16T15:19:49;12.60;95.50
20929;DHT22;21895;47.072;15.132;2024-02-16T15:22:17;12.50;95.40
20929;DHT22;21895;47.072;15.132;2024-02-16T15:24:44;12.40;95.70
20929;DHT22;21895;47.072;15.132;2024-02-16T15:27:11;12.40;95.60
20929;DHT22;21895;47.072;15.132;2024-02-16T15:29:37;12.40;95.70